Time;durP1;ratioP1;P1;durP2;ratioP2;P2;SDS_P1;SDS_P2;PMS_P1;PMS_P2;Temp;Humidity;BMP_temperature;BMP_pressure;BME280_temperature;BME280_humidity;BME280_pressure;Samples;Min_cycle;Max_cycle;Signal;HPM_P1;HPM_P2
2021/12/05 00:18:30;;;;;;;2.95;1.48;;;5.50;62.70;;;;;;21221;6627;301188;-86
2021/12/05 00:23:18;;;;;;;1.20;1.10;;;5.90;61.30;;;;;;20809;6627;66566;-86
2021/12/05 00:25:40;;;;;;;1.98;1.25;;;5.80;61.50;;;;;;21214;6627;271536;-85
2021/12/05 00:29:08;;;;;;;3.60;1.67;;;6.00;60.90;;;;;;21282;6627;271457;-86
2021/12/05 00:46:20;;;;;;;2.00;1.37;;;6.40;59.80;;;;;;21440;6627;69089;-86
2021/12/05 00:54:21;;;;;;;1.80;1.20;;;6.30;60.10;;;;;;21438;6627;66106;-86
2021/12/05 01:01:47;;;;;;;1.30;1.20;;;6.00;60.60;;;;;;21464;6627;67011;-86
2021/12/05 01:09:29;;;;;;;8.30;1.37;;;5.70;61.70;;;;;;21436;6627;66612;-87
2021/12/05 01:16:42;;;;;;;1.10;1.07;;;5.50;62.30;;;;;;21432;6627;67101;-85
2021/12/05 01:19:14;;;;;;;0.97;0.97;;;5.50;62.50;;;;;;21426;6627;66377;-86
2021/12/05 01:21:40;;;;;;;0.90;0.90;;;5.40;62.70;;;;;;21417;6627;66578;-87
2021/12/05 01:24:17;;;;;;;1.40;1.20;;;5.40;62.70;;;;;;21213;6627;301262;-90
2021/12/05 01:26:50;;;;;;;2.00;1.30;;;5.70;61.20;;;;;;21161;6627;314780;-85
2021/12/05 01:29:18;;;;;;;1.70;1.40;;;6.10;59.20;;;;;;21385;6627;66566;-86
2021/12/05 01:31:42;;;;;;;3.12;1.40;;;6.10;58.90;;;;;;21177;6627;299946;-86
2021/12/05 01:36:41;;;;;;;1.63;1.30;;;6.20;58.40;;;;;;20607;6627;300650;-87
2021/12/05 01:47:23;;;;;;;2.53;1.10;;;6.30;57.50;;;;;;21440;6627;71781;-89
2021/12/05 01:50:16;;;;;;;1.83;1.40;;;6.10;58.30;;;;;;21405;6627;66652;-86
2021/12/05 01:51:55;;;;;;;3.92;1.65;;;5.90;59.10;;;;;;20811;6627;272550;-87
2021/12/05 02:09:58;;;;;;;1.40;1.30;;;6.50;56.80;;;;;;20680;6627;67112;-86
2021/12/05 02:42:12;;;;;;;4.30;1.50;;;6.80;55.00;;;;;;21215;6627;271863;-88
2021/12/05 02:44:34;;;;;;;2.30;1.70;;;6.80;54.70;;;;;;21196;6627;301217;-87
2021/12/05 02:47:03;;;;;;;3.08;1.50;;;7.00;54.00;;;;;;21213;6627;301722;-89
2021/12/05 02:49:25;;;;;;;2.00;1.50;;;7.20;53.30;;;;;;21223;6627;274075;-88
2021/12/05 02:51:58;;;;;;;1.80;1.40;;;7.40;52.90;;;;;;21219;6630;300471;-87
2021/12/05 02:54:19;;;;;;;2.47;1.20;;;7.50;52.50;;;;;;21369;6646;67602;-87
2021/12/05 02:56:49;;;;;;;2.90;1.27;;;6.90;54.00;;;;;;21431;6630;66318;-89
2021/12/05 02:59:21;;;;;;;3.40;1.30;;;6.90;53.90;;;;;;21158;6646;302031;-89
2021/12/05 03:01:47;;;;;;;4.20;1.40;;;6.90;53.90;;;;;;21426;6640;66941;-88
2021/12/05 03:04:09;;;;;;;2.30;1.20;;;6.80;54.20;;;;;;21362;6647;72118;-87
2021/12/05 03:06:34;;;;;;;3.53;1.60;;;6.60;54.90;;;;;;21371;6645;66265;-88
2021/12/05 03:09:03;;;;;;;3.45;1.50;;;6.40;55.50;;;;;;21205;6629;303874;-88
2021/12/05 03:11:28;;;;;;;1.47;1.20;;;6.50;55.20;;;;;;21465;6627;66642;-87
2021/12/05 03:13:54;;;;;;;2.08;1.62;;;6.40;55.70;;;;;;21433;6628;66671;-87
2021/12/05 03:16:20;;;;;;;2.07;1.30;;;6.30;55.60;;;;;;21215;6629;300397;-87
2021/12/05 03:18:45;;;;;;;3.47;1.50;;;6.50;55.10;;;;;;21423;6630;67623;-88
2021/12/05 03:21:11;;;;;;;2.97;1.47;;;6.50;55.20;;;;;;21376;6646;66726;-88
2021/12/05 03:23:37;;;;;;;3.67;1.40;;;6.20;56.20;;;;;;21422;6630;66686;-87
2021/12/05 03:26:03;;;;;;;3.30;1.20;;;6.20;56.20;;;;;;21374;6646;66434;-87
2021/12/05 03:28:28;;;;;;;4.47;1.63;;;6.10;56.60;;;;;;21231;6630;304124;-91
2021/12/05 03:30:55;;;;;;;3.97;1.50;;;6.60;54.40;;;;;;21149;6646;302279;-87
2021/12/05 03:33:20;;;;;;;2.57;1.20;;;6.60;53.90;;;;;;21421;6630;66492;-88
2021/12/05 03:35:47;;;;;;;2.50;1.40;;;6.40;54.80;;;;;;21376;6646;66292;-87
2021/12/05 03:38:12;;;;;;;2.13;1.17;;;6.40;54.80;;;;;;21154;6647;305461;-87
2021/12/05 03:40:38;;;;;;;2.57;1.40;;;6.50;54.20;;;;;;21175;6645;298022;-87
2021/12/05 03:43:03;;;;;;;2.07;1.27;;;6.80;53.00;;;;;;21220;6629;271412;-87
2021/12/05 03:45:29;;;;;;;2.67;1.50;;;7.00;52.20;;;;;;21225;6629;271504;-88
2021/12/05 03:47:56;;;;;;;1.70;1.10;;;7.20;51.70;;;;;;21418;6630;66195;-87
2021/12/05 03:50:20;;;;;;;2.62;1.35;;;7.10;52.20;;;;;;21160;6646;330605;-87
2021/12/05 03:52:45;;;;;;;2.67;1.40;;;7.10;52.10;;;;;;21392;6642;71462;-89
2021/12/05 03:55:12;;;;;;;3.63;1.00;;;6.70;52.70;;;;;;21437;6631;67007;-87
2021/12/05 03:57:37;;;;;;;2.60;1.60;;;6.70;53.20;;;;;;21195;6630;301952;-87
2021/12/05 04:00:03;;;;;;;1.53;1.03;;;6.80;52.80;;;;;;21370;6646;73510;-87
2021/12/05 04:02:28;;;;;;;2.57;0.90;;;6.70;53.00;;;;;;21350;6647;66993;-87
2021/12/05 04:04:54;;;;;;;3.30;1.40;;;6.50;53.50;;;;;;21157;6645;297791;-87
2021/12/05 04:07:20;;;;;;;2.83;1.40;;;6.90;52.30;;;;;;21170;6640;300706;-86
2021/12/05 04:09:46;;;;;;;1.40;1.23;;;6.90;52.30;;;;;;21369;6647;66221;-87
2021/12/05 04:12:15;;;;;;;2.10;1.37;;;6.90;52.10;;;;;;21152;6645;305809;-87
2021/12/05 04:14:38;;;;;;;2.20;0.90;;;6.90;52.00;;;;;;21426;6629;66421;-87
2021/12/05 04:17:03;;;;;;;3.47;1.50;;;6.80;52.30;;;;;;21259;6629;299038;-89
2021/12/05 04:19:29;;;;;;;2.12;1.17;;;6.90;52.00;;;;;;21429;6630;66786;-87
2021/12/05 04:21:54;;;;;;;2.43;1.13;;;6.70;52.20;;;;;;21373;6644;66343;-88
2021/12/05 04:24:21;;;;;;;2.40;1.30;;;6.50;52.80;;;;;;21208;6630;301352;-87
2021/12/05 04:26:45;;;;;;;1.95;1.08;;;6.60;52.10;;;;;;21427;6646;66658;-87
2021/12/05 04:29:12;;;;;;;2.53;1.30;;;6.40;53.10;;;;;;21399;6640;66223;-91
2021/12/05 04:31:37;;;;;;;3.67;1.20;;;6.30;53.00;;;;;;21163;6647;272359;-87
2021/12/05 04:34:03;;;;;;;3.20;1.35;;;6.50;52.40;;;;;;21155;6645;306035;-87
2021/12/05 04:36:28;;;;;;;3.13;1.40;;;6.80;52.00;;;;;;21216;6629;277805;-87
2021/12/05 04:38:54;;;;;;;1.67;0.87;;;7.00;51.50;;;;;;21428;6629;67142;-86
2021/12/05 04:41:19;;;;;;;1.70;0.60;;;6.90;51.70;;;;;;21436;6629;66689;-86
2021/12/05 04:43:46;;;;;;;2.23;0.93;;;6.50;52.50;;;;;;21423;6630;67617;-86
2021/12/05 04:46:11;;;;;;;2.00;1.00;;;6.30;53.40;;;;;;21148;6646;299082;-86
2021/12/05 04:48:36;;;;;;;2.40;1.02;;;6.30;53.20;;;;;;21200;6630;300616;-85
2021/12/05 04:51:02;;;;;;;2.10;1.00;;;6.60;52.80;;;;;;21114;6646;272398;-86
2021/12/05 04:53:28;;;;;;;3.33;1.35;;;6.80;51.90;;;;;;21206;6630;302549;-87
2021/12/05 04:55:53;;;;;;;4.57;1.00;;;7.00;51.30;;;;;;21365;6646;69738;-85
2021/12/05 04:58:18;;;;;;;1.57;1.20;;;6.80;51.60;;;;;;21157;6647;273637;-87
2021/12/05 05:00:44;;;;;;;3.37;1.10;;;6.80;51.70;;;;;;21376;6645;66729;-88
2021/12/05 05:03:10;;;;;;;1.85;1.10;;;6.60;51.60;;;;;;21203;6629;334177;-85
2021/12/05 05:05:38;;;;;;;2.50;0.97;;;6.60;51.60;;;;;;21469;6629;66128;-85
2021/12/05 05:08:01;;;;;;;3.10;1.00;;;6.50;51.90;;;;;;21449;6629;66511;-85
2021/12/05 05:10:27;;;;;;;3.20;1.17;;;6.30;52.70;;;;;;21214;6629;272079;-86
2021/12/05 05:12:53;;;;;;;1.95;0.93;;;6.30;52.80;;;;;;21453;6629;66149;-86
2021/12/05 05:15:22;;;;;;;2.13;1.03;;;6.30;52.90;;;;;;21428;6629;67631;-86
2021/12/05 05:17:44;;;;;;;2.25;1.10;;;6.10;53.40;;;;;;21212;6629;270934;-86
2021/12/05 05:20:21;;;;;;;3.20;1.00;;;6.20;52.70;;;;;;21204;6629;302110;-85
2021/12/05 05:22:53;;;;;;;2.60;1.20;;;6.80;51.40;;;;;;21179;6627;300836;-88
2021/12/05 05:27:58;;;;;;;2.50;1.10;;;6.40;52.70;;;;;;21437;6627;71838;-87
2021/12/05 05:30:33;;;;;;;1.47;0.73;;;6.50;52.20;;;;;;21372;6630;67107;-86
2021/12/05 05:43:52;;;;;;;3.10;1.30;;;5.50;54.90;;;;;;21240;6634;314224;-85
2021/12/05 05:46:15;;;;;;;2.47;1.45;;;5.70;55.00;;;;;;21155;6634;301228;-87
2021/12/05 05:48:48;;;;;;;1.90;1.20;;;6.00;54.40;;;;;;21402;6634;66629;-86
2021/12/05 05:51:09;;;;;;;3.40;1.20;;;6.00;54.30;;;;;;21392;6634;66213;-85
2021/12/05 05:53:34;;;;;;;3.17;1.07;;;5.80;55.00;;;;;;21185;6634;300839;-88
2021/12/05 05:56:02;;;;;;;2.23;1.27;;;5.70;55.10;;;;;;21425;6634;76303;-88
2021/12/05 05:58:42;;;;;;;2.20;1.40;;;5.80;55.20;;;;;;21205;6634;297971;-87
2021/12/05 06:01:18;;;;;;;2.17;1.37;;;5.90;55.00;;;;;;21401;6634;66585;-87
2021/12/05 06:03:44;;;;;;;1.47;0.80;;;5.70;54.90;;;;;;21359;6634;66576;-87
2021/12/05 06:06:11;;;;;;;4.43;1.30;;;5.50;55.50;;;;;;21189;6634;300542;-85
2021/12/05 06:08:53;;;;;;;2.00;1.25;;;5.60;55.60;;;;;;21182;6634;301269;-87
2021/12/05 06:11:16;;;;;;;3.30;1.00;;;5.80;55.60;;;;;;21389;6634;66316;-83
2021/12/05 06:13:41;;;;;;;1.77;1.10;;;5.70;54.90;;;;;;21409;6634;67134;-83
2021/12/05 06:16:07;;;;;;;2.47;1.17;;;5.50;55.60;;;;;;21205;6634;306411;-84
2021/12/05 06:18:32;;;;;;;2.60;1.33;;;5.50;55.70;;;;;;21200;6634;328033;-86
2021/12/05 06:20:58;;;;;;;3.07;1.37;;;5.70;55.10;;;;;;21196;6634;300360;-87
2021/12/05 06:23:24;;;;;;;3.60;1.45;;;6.00;54.80;;;;;;21417;6634;71040;-87
2021/12/05 06:25:50;;;;;;;2.10;1.30;;;5.50;55.50;;;;;;21414;6634;66657;-85
2021/12/05 06:28:16;;;;;;;4.67;4.27;;;5.50;55.50;;;;;;21185;6634;271159;-85
2021/12/05 06:30:51;;;;;;;6.77;6.20;;;5.60;55.80;;;;;;21190;6634;271325;-84
2021/12/05 06:48:44;;;;;;;2.95;2.10;;;5.80;55.80;;;;;;21230;6627;317769;-88
2021/12/05 06:51:09;;;;;;;2.47;2.33;;;5.80;55.70;;;;;;21471;6627;69706;-86
2021/12/05 06:53:35;;;;;;;3.20;1.35;;;5.80;55.70;;;;;;20947;6701;307596;-85
2021/12/05 06:56:00;;;;;;;1.58;1.00;;;5.90;55.70;;;;;;21182;6708;67582;-85
2021/12/05 06:58:26;;;;;;;2.43;1.17;;;5.90;55.80;;;;;;20949;6716;304038;-86
2021/12/05 07:00:51;;;;;;;2.47;1.10;;;6.00;55.70;;;;;;20985;6716;308136;-87
2021/12/05 07:03:17;;;;;;;1.03;0.93;;;6.20;54.80;;;;;;21180;6708;74220;-86
2021/12/05 07:06:03;;;;;;;2.10;1.05;;;6.10;54.80;;;;;;21202;6706;67171;-85
2021/12/05 07:08:28;;;;;;;4.05;1.52;;;5.80;55.30;;;;;;20966;6706;273915;-86
2021/12/05 07:18:43;;;;;;;3.62;1.60;;;5.70;55.30;;;;;;20972;6706;304339;-88
2021/12/05 07:26:22;;;;;;;2.20;1.40;;;5.50;55.80;;;;;;21187;6707;67162;-87
2021/12/05 07:40:28;;;;;;;2.17;2.03;;;4.70;58.20;;;;;;21183;6707;67717;-85
2021/12/05 07:42:51;;;;;;;2.90;2.08;;;4.60;58.40;;;;;;20954;6707;278459;-87
2021/12/05 07:45:20;;;;;;;3.10;1.70;;;4.90;57.90;;;;;;20952;6707;335542;-86
2021/12/05 07:47:46;;;;;;;1.20;1.00;;;5.30;56.80;;;;;;21167;6707;67129;-86
2021/12/05 07:50:10;;;;;;;1.77;1.08;;;5.30;56.40;;;;;;21177;6707;67575;-85
2021/12/05 07:52:35;;;;;;;1.57;1.20;;;5.20;56.90;;;;;;21182;6707;66642;-86
2021/12/05 07:55:12;;;;;;;3.12;1.87;;;5.00;57.30;;;;;;20991;6707;275079;-87
2021/12/05 07:57:37;;;;;;;1.77;1.27;;;5.20;56.60;;;;;;21184;6705;66962;-86
2021/12/05 08:00:07;;;;;;;2.50;1.20;;;5.30;56.50;;;;;;21164;6706;67133;-86
2021/12/05 08:16:16;;;;;;;3.07;2.00;;;5.90;55.90;;;;;;20996;6706;273697;-89
2021/12/05 08:22:06;;;;;;;3.00;2.30;;;6.20;55.90;;;;;;21046;6611;276674;-89
2021/12/05 08:24:46;;;;;;;2.87;1.93;;;6.80;53.30;;;;;;21124;6600;302381;-89
2021/12/05 08:27:18;;;;;;;3.57;2.00;;;6.80;53.70;;;;;;21152;6594;300794;-90
2021/12/05 08:29:57;;;;;;;2.33;2.10;;;7.20;52.90;;;;;;21359;6594;66810;-88
2021/12/05 08:32:48;;;;;;;3.80;2.10;;;7.10;53.30;;;;;;21326;6579;72818;-85
2021/12/05 08:35:20;;;;;;;3.00;2.53;;;6.90;54.10;;;;;;21161;6643;315530;-85
2021/12/05 08:43:44;;;;;;;3.20;2.90;;;7.60;52.00;;;;;;20458;6737;72464;-87
2021/12/05 08:46:22;;;;;;;3.53;1.87;;;7.50;52.50;;;;;;21374;6639;68651;-86
2021/12/05 09:21:05;;;;;;;3.33;2.20;;;7.30;52.30;;;;;;21224;6576;310048;-86
2021/12/05 09:23:35;;;;;;;2.05;1.85;;;7.40;52.40;;;;;;21091;6617;303629;-87
2021/12/05 09:26:28;;;;;;;2.70;1.90;;;7.50;52.70;;;;;;21244;6622;288689;-88
2021/12/05 09:52:47;;;;;;;2.37;2.17;;;9.00;56.00;;;;;;21162;6589;273262;-87
2021/12/05 10:13:00;;;;;;;;;;;;;;;;;;;;;
2021/12/05 10:15:10;;;;;;;1.97;1.77;;;9.20;52.90;;;;;;20689;6640;272247;-89
2021/12/05 10:17:57;;;;;;;2.10;1.70;;;9.30;52.30;;;;;;21439;6622;69842;-90
2021/12/05 10:26:07;;;;;;;2.50;2.00;;;9.30;52.80;;;;;;21220;6621;299395;-91
2021/12/05 10:26:30;;;;;;;3.23;1.70;;;9.50;53.30;;;;;;21427;6577;66081;-89
2021/12/05 10:34:59;;;;;;;3.53;1.83;;;9.80;51.10;;;;;;21185;6574;313511;-90
2021/12/05 10:37:20;;;;;;;2.85;1.80;;;9.80;51.00;;;;;;21079;6663;273377;-91
2021/12/05 10:39:48;;;;;;;2.40;1.70;;;10.20;49.70;;;;;;21372;6604;66777;-88
2021/12/05 10:42:39;;;;;;;3.60;1.70;;;10.20;50.00;;;;;;21145;6638;310102;-90
2021/12/05 10:45:19;;;;;;;3.03;1.50;;;10.30;49.20;;;;;;21371;6597;67162;-89
2021/12/05 10:47:55;;;;;;;2.40;1.57;;;10.40;49.20;;;;;;21142;6597;270927;-91
2021/12/05 10:50:30;;;;;;;2.87;1.37;;;10.40;49.20;;;;;;21343;6606;66355;-87
2021/12/05 10:53:19;;;;;;;1.30;1.20;;;10.50;49.80;;;;;;21236;6605;67216;-90
2021/12/05 10:56:25;;;;;;;3.77;1.40;;;10.40;50.20;;;;;;21063;6621;303043;-87
2021/12/05 10:59:13;;;;;;;1.90;1.23;;;10.50;48.60;;;;;;21369;6604;66443;-89
2021/12/05 11:01:53;;;;;;;1.90;1.30;;;10.50;49.00;;;;;;21361;6589;66670;-88
2021/12/05 11:04:28;;;;;;;1.20;1.00;;;10.30;49.60;;;;;;21364;6589;66876;-90
2021/12/05 11:07:10;;;;;;;2.23;0.87;;;10.20;50.20;;;;;;21284;6660;66821;-89
2021/12/05 11:09:48;;;;;;;1.83;1.00;;;10.00;50.40;;;;;;21298;6660;67035;-89
2021/12/05 11:12:27;;;;;;;2.07;0.83;;;9.80;51.60;;;;;;21259;6637;66991;-88
2021/12/05 11:15:11;;;;;;;1.33;0.90;;;9.50;51.70;;;;;;20987;6663;66889;-90
2021/12/05 11:17:49;;;;;;;1.40;1.00;;;9.30;51.90;;;;;;21065;6659;272921;-91
2021/12/05 11:20:30;;;;;;;1.10;0.90;;;9.40;49.60;;;;;;21316;6610;67413;-90
2021/12/05 11:23:04;;;;;;;1.33;0.70;;;9.40;50.30;;;;;;21254;6595;66617;-88
2021/12/05 11:25:42;;;;;;;1.60;0.80;;;9.10;50.90;;;;;;21106;6610;321573;-90
2021/12/05 11:28:15;;;;;;;1.90;1.10;;;9.30;50.00;;;;;;21264;6660;66804;-88
2021/12/05 11:30:51;;;;;;;1.53;0.90;;;9.30;50.00;;;;;;21107;6658;298906;-89
2021/12/05 11:33:30;;;;;;;1.30;0.80;;;9.40;48.60;;;;;;21131;6607;67184;-88
2021/12/05 11:36:03;;;;;;;2.67;0.70;;;9.20;49.80;;;;;;21413;6580;73098;-87
2021/12/05 11:38:42;;;;;;;1.10;1.00;;;9.20;49.80;;;;;;21411;6583;67207;-90
2021/12/05 11:41:16;;;;;;;2.60;0.70;;;9.00;50.80;;;;;;21361;6595;70556;-88
2021/12/05 11:43:51;;;;;;;1.47;0.80;;;9.00;50.80;;;;;;21187;6595;72363;-88
2021/12/05 11:46:33;;;;;;;2.73;0.97;;;9.00;51.30;;;;;;21272;6656;67135;-89
2021/12/05 11:49:10;;;;;;;1.35;0.98;;;8.90;51.60;;;;;;21183;6568;333654;-88
2021/12/05 11:51:44;;;;;;;1.70;0.90;;;9.30;49.40;;;;;;21154;6582;301657;-90
2021/12/05 11:54:29;;;;;;;1.57;1.13;;;9.70;48.50;;;;;;21343;6639;74049;-91
2021/12/05 11:57:15;;;;;;;1.33;1.00;;;9.90;49.20;;;;;;21106;6639;304494;-88
2021/12/05 11:59:57;;;;;;;1.50;1.00;;;10.10;46.70;;;;;;21117;6583;301146;-88
2021/12/05 12:02:33;;;;;;;1.10;1.00;;;10.50;45.80;;;;;;21091;6569;273674;-88
2021/12/05 12:05:13;;;;;;;1.27;1.10;;;10.70;45.20;;;;;;21180;6582;300847;-90
2021/12/05 12:07:53;;;;;;;2.00;1.03;;;10.80;43.80;;;;;;21376;6583;66234;-87
2021/12/05 12:10:41;;;;;;;1.27;1.08;;;10.50;45.00;;;;;;21205;6582;272318;-88
2021/12/05 12:13:18;;;;;;;1.70;1.07;;;10.40;44.20;;;;;;21151;6639;67292;-87
2021/12/05 12:15:58;;;;;;;2.10;0.77;;;10.20;45.10;;;;;;21400;6583;67061;-87
2021/12/05 12:18:32;;;;;;;1.37;0.90;;;9.80;47.30;;;;;;21409;6582;66321;-87
2021/12/05 12:21:06;;;;;;;0.90;0.90;;;9.60;48.10;;;;;;21406;6583;66641;-89
2021/12/05 12:23:42;;;;;;;1.00;0.87;;;9.40;48.80;;;;;;21245;6582;67569;-88
2021/12/05 12:26:17;;;;;;;0.57;0.50;;;9.20;49.00;;;;;;21151;6654;66388;-88
2021/12/05 12:28:53;;;;;;;1.90;0.77;;;9.00;49.20;;;;;;21360;6637;67593;-89
2021/12/05 12:31:32;;;;;;;1.60;1.10;;;8.90;49.70;;;;;;21202;6576;328520;-89
2021/12/05 12:34:05;;;;;;;0.90;0.90;;;9.60;47.90;;;;;;21007;6624;303776;-89
2021/12/05 12:36:47;;;;;;;1.53;1.00;;;9.60;47.90;;;;;;21138;6640;300460;-88
2021/12/05 12:39:29;;;;;;;1.20;1.10;;;10.00;45.70;;;;;;21363;6637;66282;-88
2021/12/05 12:42:19;;;;;;;0.93;0.87;;;10.10;46.10;;;;;;21096;6596;279084;-89
2021/12/05 12:45:13;;;;;;;1.83;0.70;;;10.20;43.80;;;;;;21187;6623;329060;-87
2021/12/05 12:47:53;;;;;;;0.63;0.63;;;10.50;43.60;;;;;;21426;6623;66654;-89
2021/12/05 12:50:41;;;;;;;3.20;0.87;;;10.40;44.30;;;;;;21403;6567;66646;-88
2021/12/05 12:53:21;;;;;;;1.13;0.70;;;9.80;46.90;;;;;;21326;6567;67286;-89
2021/12/05 12:56:19;;;;;;;;;;;;;;;;;;;;;
2021/12/05 12:58:54;;;;;;;1.07;0.83;;;9.60;47.70;;;;;;20388;6652;299325;-89
2021/12/05 13:10:05;;;;;;;1.80;0.90;;;9.40;48.50;;;;;;21127;6584;329054;-87
2021/12/05 13:12:44;;;;;;;0.93;0.70;;;9.60;47.10;;;;;;21304;6582;71265;-86
2021/12/05 13:15:29;;;;;;;1.57;0.90;;;9.50;47.40;;;;;;21189;6591;276543;-86
2021/12/05 13:18:07;;;;;;;1.20;0.90;;;9.60;46.10;;;;;;21157;6588;300301;-90
2021/12/05 13:20:43;;;;;;;1.02;0.90;;;9.90;46.00;;;;;;21153;6590;289621;-87
2021/12/05 13:23:37;;;;;;;2.50;1.00;;;10.10;45.70;;;;;;21239;6590;67469;-88
2021/12/05 13:26:19;;;;;;;1.23;0.70;;;9.90;46.90;;;;;;21377;6578;66210;-86
2021/12/05 13:28:53;;;;;;;2.30;0.80;;;9.50;47.70;;;;;;21407;6578;69847;-87
2021/12/05 13:31:28;;;;;;;2.08;0.95;;;9.20;48.30;;;;;;21142;6578;299108;-86
2021/12/05 13:34:17;;;;;;;1.13;0.93;;;9.30;48.40;;;;;;21176;6650;67138;-87
2021/12/05 13:36:52;;;;;;;1.33;1.03;;;9.20;48.60;;;;;;21342;6593;66313;-87
2021/12/05 13:39:45;;;;;;;0.83;0.80;;;8.90;49.00;;;;;;21305;6593;69414;-88
2021/12/05 13:42:26;;;;;;;1.50;1.00;;;8.70;49.40;;;;;;21390;6563;67418;-87
2021/12/05 13:45:05;;;;;;;2.03;1.30;;;8.50;49.80;;;;;;21353;6578;66150;-88
2021/12/05 13:47:53;;;;;;;1.70;1.30;;;8.30;50.10;;;;;;21229;6568;329740;-84
2021/12/05 13:50:33;;;;;;;1.80;1.20;;;8.60;49.90;;;;;;21369;6584;66734;-85
2021/12/05 13:53:08;;;;;;;2.00;1.10;;;8.60;49.90;;;;;;21014;6593;273966;-85
2021/12/05 13:55:49;;;;;;;1.30;1.20;;;8.80;49.40;;;;;;21412;6581;66515;-87
2021/12/05 13:58:29;;;;;;;1.47;1.00;;;8.80;49.70;;;;;;21389;6584;66630;-87
2021/12/05 14:01:25;;;;;;;2.43;1.17;;;8.60;50.20;;;;;;21389;6582;67231;-87
2021/12/05 14:04:18;;;;;;;1.33;1.10;;;8.50;50.80;;;;;;21215;6638;66543;-85
2021/12/05 14:07:06;;;;;;;2.23;1.43;;;8.40;51.10;;;;;;21179;6567;300582;-86
2021/12/05 14:09:46;;;;;;;1.80;1.47;;;8.70;50.40;;;;;;21392;6567;66544;-86
2021/12/05 14:12:24;;;;;;;1.73;1.50;;;8.90;49.80;;;;;;21112;6567;332175;-87
2021/12/05 14:14:59;;;;;;;2.13;1.47;;;8.90;49.70;;;;;;21347;6584;67248;-86
2021/12/05 14:17:33;;;;;;;1.60;1.33;;;8.90;49.90;;;;;;21393;6582;67665;-86
2021/12/05 14:20:11;;;;;;;1.37;1.20;;;8.70;50.30;;;;;;21192;6582;305945;-86
2021/12/05 14:22:46;;;;;;;1.43;1.33;;;8.80;49.40;;;;;;21069;6583;307392;-85
2021/12/05 14:25:22;;;;;;;1.40;1.00;;;9.20;48.50;;;;;;21371;6591;71262;-86
2021/12/05 14:27:57;;;;;;;1.40;1.30;;;9.10;48.60;;;;;;21143;6595;306416;-86
2021/12/05 14:30:34;;;;;;;1.20;0.80;;;9.20;48.10;;;;;;21387;6595;66810;-85
2021/12/05 14:33:12;;;;;;;1.00;0.90;;;9.00;48.60;;;;;;21304;6581;66672;-86
2021/12/05 14:35:44;;;;;;;2.83;2.30;;;8.80;49.30;;;;;;21235;6566;331832;-85
2021/12/05 14:38:23;;;;;;;1.40;1.30;;;8.90;49.00;;;;;;21417;6566;66122;-87
2021/12/05 14:40:55;;;;;;;1.67;1.57;;;8.80;49.00;;;;;;21420;6566;67144;-86
2021/12/05 14:43:33;;;;;;;2.33;2.13;;;8.60;49.40;;;;;;21301;6566;66900;-86
2021/12/05 14:46:06;;;;;;;2.28;1.50;;;8.40;49.80;;;;;;21118;6601;332451;-86
2021/12/05 14:48:42;;;;;;;1.55;1.40;;;8.50;49.90;;;;;;21148;6588;301477;-86
2021/12/05 14:51:18;;;;;;;1.17;1.07;;;8.80;49.70;;;;;;21350;6596;66394;-87
2021/12/05 14:54:04;;;;;;;;;;;;;;;;;;;;;
2021/12/05 15:07:49;;;;;;;1.70;1.60;;;9.60;48.00;;;;;;21480;6547;325599;-89
2021/12/05 15:10:18;;;;;;;1.90;1.70;;;9.70;47.60;;;;;;21450;6556;288006;-86
2021/12/05 15:12:49;;;;;;;2.40;2.30;;;9.80;46.90;;;;;;21567;6556;67076;-87
2021/12/05 15:15:13;;;;;;;2.50;2.30;;;9.40;47.20;;;;;;21203;6623;305774;-87
2021/12/05 15:17:38;;;;;;;2.30;1.80;;;9.40;47.10;;;;;;21231;6624;272213;-87
2021/12/05 15:20:11;;;;;;;2.10;1.60;;;9.50;47.20;;;;;;21223;6627;306654;-86
2021/12/05 15:22:36;;;;;;;2.97;1.90;;;9.60;46.80;;;;;;21479;6628;68423;-87
2021/12/05 15:25:05;;;;;;;2.30;2.10;;;9.30;47.30;;;;;;21455;6624;66548;-89
2021/12/05 15:27:31;;;;;;;2.10;1.90;;;8.90;48.30;;;;;;21219;6624;304386;-88
2021/12/05 15:29:56;;;;;;;1.62;1.52;;;8.80;48.30;;;;;;21447;6624;68159;-88
2021/12/05 15:32:22;;;;;;;1.92;1.73;;;8.70;48.80;;;;;;21519;6609;66475;-86
2021/12/05 15:34:51;;;;;;;2.00;1.90;;;8.50;49.50;;;;;;21242;6609;329689;-87
2021/12/05 15:37:16;;;;;;;2.73;1.67;;;8.60;49.30;;;;;;21484;6609;70396;-87
2021/12/05 15:39:45;;;;;;;2.23;1.70;;;8.50;49.40;;;;;;21271;6609;299348;-87
2021/12/05 15:42:14;;;;;;;2.07;1.60;;;8.60;49.40;;;;;;21487;6609;68662;-86
2021/12/05 15:44:41;;;;;;;1.47;1.33;;;8.30;50.60;;;;;;21484;6609;69496;-86
2021/12/05 15:47:06;;;;;;;4.47;4.10;;;8.30;50.10;;;;;;21312;6609;298940;-86
2021/12/05 15:49:42;;;;;;;2.17;1.87;;;8.40;49.80;;;;;;21479;6609;67203;-89
2021/12/05 15:52:08;;;;;;;2.60;2.40;;;8.40;49.80;;;;;;21395;6609;70867;-86
2021/12/05 15:54:34;;;;;;;3.03;2.53;;;8.20;50.30;;;;;;21279;6609;272608;-87
2021/12/05 15:56:59;;;;;;;2.28;2.15;;;8.30;50.00;;;;;;21270;6609;270528;-88
2021/12/05 15:59:24;;;;;;;2.40;2.30;;;8.60;49.50;;;;;;21228;6609;300292;-87
2021/12/05 16:01:51;;;;;;;2.35;2.20;;;8.80;49.00;;;;;;21273;6609;304350;-88
2021/12/05 16:04:19;;;;;;;2.08;1.98;;;9.00;48.70;;;;;;21273;6609;300698;-87
2021/12/05 16:06:44;;;;;;;74.67;65.00;;;9.10;48.30;;;;;;21271;6609;278253;-86
2021/12/05 16:09:13;;;;;;;17.98;16.25;;;9.30;48.30;;;;;;21285;6609;271920;-86
2021/12/05 16:11:39;;;;;;;16.80;15.10;;;9.30;47.80;;;;;;21526;6609;68095;-87
2021/12/05 16:14:05;;;;;;;19.60;17.60;;;9.00;48.50;;;;;;21253;6609;304356;-87
2021/12/05 16:16:31;;;;;;;10.77;9.67;;;9.00;48.50;;;;;;21499;6609;69391;-87
2021/12/05 16:18:56;;;;;;;11.20;10.23;;;8.80;48.90;;;;;;21263;6607;293000;-87
2021/12/05 16:21:28;;;;;;;9.13;8.25;;;8.80;48.60;;;;;;21466;6609;66652;-88
2021/12/05 16:23:53;;;;;;;5.50;5.10;;;8.60;49.00;;;;;;21272;6609;299475;-94
2021/12/05 16:26:21;;;;;;;4.68;4.37;;;8.60;49.40;;;;;;21279;6609;271231;-88
2021/12/05 16:28:47;;;;;;;3.65;3.37;;;8.80;48.70;;;;;;21481;6609;66055;-90
2021/12/05 16:31:13;;;;;;;3.00;2.87;;;8.60;49.00;;;;;;21498;6609;66525;-86
2021/12/05 16:33:39;;;;;;;3.00;2.50;;;8.00;50.80;;;;;;21465;6609;67682;-88
2021/12/05 16:36:05;;;;;;;3.57;2.40;;;8.00;50.30;;;;;;21488;6609;66409;-86
2021/12/05 16:38:34;;;;;;;2.80;2.50;;;7.80;50.80;;;;;;21493;6609;70807;-86
2021/12/05 16:41:13;;;;;;;3.87;2.50;;;7.60;51.20;;;;;;21273;6609;288097;-86
2021/12/05 16:43:38;;;;;;;5.87;2.50;;;7.70;51.60;;;;;;20416;6609;302328;-88
2021/12/05 16:46:11;;;;;;;3.07;2.77;;;8.40;48.10;;;;;;21235;6609;270797;-88
2021/12/05 16:48:36;;;;;;;3.90;3.60;;;8.40;48.10;;;;;;21466;6609;67549;-89
2021/12/05 16:51:15;;;;;;;4.43;3.73;;;8.20;48.30;;;;;;21494;6609;66144;-87
2021/12/05 16:53:45;;;;;;;5.50;5.10;;;7.80;48.90;;;;;;20674;6609;307626;-86
2021/12/05 16:56:06;;;;;;;4.70;4.27;;;7.80;48.90;;;;;;21482;6609;66055;-87
2021/12/05 16:58:32;;;;;;;5.40;5.00;;;7.70;48.70;;;;;;21280;6609;328785;-87
2021/12/05 17:00:58;;;;;;;4.87;4.47;;;7.70;48.90;;;;;;21304;6609;299412;-86
2021/12/05 17:03:23;;;;;;;4.30;4.00;;;7.90;48.40;;;;;;21544;6609;66049;-88
2021/12/05 17:05:51;;;;;;;4.43;4.03;;;7.80;49.20;;;;;;21286;6609;271255;-87
2021/12/05 17:08:24;;;;;;;4.73;4.37;;;7.80;49.30;;;;;;21485;6609;66003;-86
2021/12/05 17:10:56;;;;;;;5.00;4.70;;;7.70;49.50;;;;;;21266;6609;290861;-87
2021/12/05 17:13:35;;;;;;;4.80;4.40;;;7.70;48.90;;;;;;21491;6609;66493;-87
2021/12/05 17:16:07;;;;;;;5.90;5.37;;;7.30;49.90;;;;;;21536;6609;66565;-90
2021/12/05 17:18:46;;;;;;;5.73;5.33;;;7.20;49.80;;;;;;21498;6609;70705;-87
2021/12/05 17:21:12;;;;;;;7.37;6.87;;;7.00;50.70;;;;;;21247;6609;303822;-88
2021/12/05 17:23:40;;;;;;;7.30;6.80;;;7.20;51.20;;;;;;21267;6609;299879;-86
2021/12/05 17:26:06;;;;;;;7.50;7.00;;;7.50;50.40;;;;;;21477;6609;67522;-86
2021/12/05 17:28:34;;;;;;;7.53;6.93;;;7.50;50.30;;;;;;21395;6607;67004;-87
2021/12/05 17:31:00;;;;;;;7.87;7.28;;;7.20;50.70;;;;;;21256;6608;336987;-86
2021/12/05 17:33:33;;;;;;;7.50;6.87;;;7.30;50.70;;;;;;21493;6609;65971;-85
2021/12/05 17:35:57;;;;;;;7.77;7.20;;;7.30;50.80;;;;;;21463;6609;66935;-88
2021/12/05 17:38:29;;;;;;;8.20;7.50;;;7.10;51.20;;;;;;21210;6609;292717;-86
2021/12/05 17:40:54;;;;;;;7.27;6.67;;;7.20;50.80;;;;;;21482;6609;66044;-85
2021/12/05 17:43:20;;;;;;;12.57;11.60;;;7.20;50.80;;;;;;21486;6609;68047;-86
2021/12/05 17:45:46;;;;;;;11.18;10.38;;;7.00;51.30;;;;;;21492;6609;66549;-86
2021/12/05 17:48:12;;;;;;;9.63;8.85;;;6.70;52.00;;;;;;21491;6609;66613;-86
2021/12/05 17:50:39;;;;;;;10.10;9.30;;;6.70;52.00;;;;;;21494;6609;66821;-87
2021/12/05 17:53:03;;;;;;;10.13;9.43;;;6.60;52.20;;;;;;21268;6609;271443;-85
2021/12/05 17:55:32;;;;;;;7.53;7.03;;;6.80;51.90;;;;;;21277;6609;270595;-85
2021/12/05 17:58:01;;;;;;;6.50;6.00;;;7.10;51.60;;;;;;21266;6609;271323;-85
2021/12/05 18:00:35;;;;;;;5.97;5.57;;;7.50;50.80;;;;;;21264;6609;284106;-88
2021/12/05 18:02:53;;;;;;;5.30;5.00;;;7.70;49.70;;;;;;21235;6609;300249;-86
2021/12/05 18:05:17;;;;;;;5.67;5.27;;;7.80;49.30;;;;;;21263;6609;270846;-87
2021/12/05 18:07:43;;;;;;;4.77;4.47;;;7.90;49.20;;;;;;21260;6609;297406;-86